Time;durP1;ratioP1;P1;durP2;ratioP2;P2;SDS_P1;SDS_P2;PMS_P1;PMS_P2;Temp;Humidity;BMP_temperature;BMP_pressure;BME280_temperature;BME280_humidity;BME280_pressure;Samples;Min_cycle;Max_cycle;Signal;HPM_P1;HPM_P2
2022/01/29 00:00:25;;;;;;;;;;;;;;;1.04;100.00;99199.75;1583375;88;20225;-84
2022/01/29 00:02:53;;;;;;;;;;;;;;;1.04;100.00;99201.04;1568131;89;20456;-84
2022/01/29 00:05:19;;;;;;;;;;;;;;;1.03;100.00;99209.23;1566313;90;20591;-84
2022/01/29 00:07:45;;;;;;;;;;;;;;;1.00;100.00;99217.02;1565279;90;26077;-84
2022/01/29 00:10:11;;;;;;;;;;;;;;;0.97;100.00;99214.51;1571346;90;25220;-83
2022/01/29 00:12:38;;;;;;;;;;;;;;;0.95;100.00;99209.81;1574991;90;20345;-84
2022/01/29 00:15:05;;;;;;;;;;;;;;;0.96;100.00;99203.78;1581319;89;25033;-84
2022/01/29 00:17:31;;;;;;;;;;;;;;;0.96;100.00;99209.37;1584089;90;22095;-84
2022/01/29 00:19:58;;;;;;;;;;;;;;;0.94;100.00;99209.39;1583304;90;26154;-84
2022/01/29 00:22:24;;;;;;;;;;;;;;;0.93;100.00;99206.88;1582279;90;24508;-84
2022/01/29 00:24:50;;;;;;;;;;;;;;;0.93;100.00;99212.84;1582215;90;20507;-84
2022/01/29 00:27:21;;;;;;;;;;;;;;;0.93;100.00;99212.84;1578211;90;24943;-84
2022/01/29 00:29:46;;;;;;;;;;;;;;;0.86;100.00;99211.28;1588085;89;22597;-83
2022/01/29 00:32:12;;;;;;;;;;;;;;;0.81;100.00;99211.37;1587796;90;26019;-83
2022/01/29 00:34:39;;;;;;;;;;;;;;;0.76;100.00;99208.00;1582175;90;24684;-83
2022/01/29 00:37:06;;;;;;;;;;;;;;;0.76;100.00;99212.33;1582078;90;20264;-84
2022/01/29 00:39:32;;;;;;;;;;;;;;;0.73;100.00;99217.09;1581832;90;25072;-83
2022/01/29 00:42:00;;;;;;;;;;;;;;;0.73;100.00;99213.66;1600582;88;20171;-84
2022/01/29 00:44:26;;;;;;;;;;;;;;;0.72;100.00;99215.81;1585183;90;25995;-84
2022/01/29 00:46:52;;;;;;;;;;;;;;;0.71;100.00;99221.88;1579513;88;20312;-84
2022/01/29 00:49:18;;;;;;;;;;;;;;;0.67;100.00;99221.05;1582496;90;20301;-84
2022/01/29 00:51:44;;;;;;;;;;;;;;;0.66;100.00;99229.65;1586950;90;24954;-84
2022/01/29 00:54:10;;;;;;;;;;;;;;;0.64;100.00;99229.28;1582902;90;22130;-83
2022/01/29 00:56:36;;;;;;;;;;;;;;;0.59;100.00;99232.38;1586579;90;26053;-84
2022/01/29 00:59:02;;;;;;;;;;;;;;;0.58;100.00;99229.39;1581498;90;24395;-83
2022/01/29 01:01:29;;;;;;;;;;;;;;;0.56;100.00;99227.27;1584456;90;20197;-83
2022/01/29 01:03:55;;;;;;;;;;;;;;;0.54;100.00;99230.32;1587029;89;24995;-83
2022/01/29 01:06:22;;;;;;;;;;;;;;;0.52;100.00;99226.91;1582713;90;21923;-83
2022/01/29 01:08:48;;;;;;;;;;;;;;;0.49;100.00;99226.98;1585031;90;26209;-83
2022/01/29 01:11:14;;;;;;;;;;;;;;;0.46;100.00;99221.42;1581686;90;24421;-83
2022/01/29 01:13:40;;;;;;;;;;;;;;;0.44;100.00;99224.92;1583188;90;20251;-83
2022/01/29 01:16:06;;;;;;;;;;;;;;;0.44;100.00;99219.77;1581309;90;25035;-83
2022/01/29 01:18:34;;;;;;;;;;;;;;;0.44;100.00;99217.20;1593224;88;20261;-82
2022/01/29 01:21:00;;;;;;;;;;;;;;;0.45;100.00;99216.29;1581822;89;26005;-83
2022/01/29 01:23:27;;;;;;;;;;;;;;;0.44;100.00;99215.91;1580311;90;25082;-82
2022/01/29 01:25:54;;;;;;;;;;;;;;;0.45;100.00;99210.70;1579545;90;20281;-82
2022/01/29 01:28:20;;;;;;;;;;;;;;;0.45;100.00;99207.28;1588225;90;25089;-82
2022/01/29 01:30:46;;;;;;;;;;;;;;;0.43;100.00;99210.34;1580262;90;22618;-82
2022/01/29 01:33:15;;;;;;;;;;;;;;;0.43;100.00;99208.62;1591615;89;26066;-82
2022/01/29 01:35:49;;;;;;;;;;;;;;;0.38;100.00;99202.23;1596184;87;24603;-82
2022/01/29 01:38:22;;;;;;;;;;;;;;;0.34;100.00;99206.17;1580176;90;20200;-82
2022/01/29 01:40:51;;;;;;;;;;;;;;;0.29;100.00;99210.11;1592177;89;25001;-82
2022/01/29 01:43:14;;;;;;;;;;;;;;;0.26;100.00;99219.62;1594600;89;22814;-82
2022/01/29 01:45:42;;;;;;;;;;;;;;;0.20;100.00;99210.28;1591413;89;26015;-83
2022/01/29 01:48:09;;;;;;;;;;;;;;;0.18;100.00;99213.73;1583646;89;25400;-84
2022/01/29 01:50:36;;;;;;;;;;;;;;;0.15;100.00;99214.64;1583248;89;20322;-84
2022/01/29 01:53:03;;;;;;;;;;;;;;;0.11;100.00;99214.72;1589136;89;24989;-83
2022/01/29 01:55:31;;;;;;;;;;;;;;;0.07;100.00;99211.33;1593820;89;22010;-84
2022/01/29 01:57:58;;;;;;;;;;;;;;;0.05;100.00;99205.38;1585164;89;26128;-83
2022/01/29 02:00:25;;;;;;;;;;;;;;;0.04;100.00;99198.95;1581936;89;24455;-83
2022/01/29 02:02:52;;;;;;;;;;;;;;;0.02;100.00;99201.55;1592241;89;20497;-82
2022/01/29 02:05:18;;;;;;;;;;;;;;;-0.01;100.00;99201.61;1592642;89;25119;-82
2022/01/29 02:07:45;;;;;;;;;;;;;;;-0.02;100.00;99202.47;1593528;89;22061;-83
2022/01/29 02:10:12;;;;;;;;;;;;;;;-0.03;100.00;99208.48;1591019;89;26084;-82
2022/01/29 02:12:46;;;;;;;;;;;;;;;-0.03;100.00;99208.48;1612058;88;24475;-83
2022/01/29 02:15:13;;;;;;;;;;;;;;;-0.05;100.00;99211.50;1590703;88;20226;-83
2022/01/29 02:17:39;;;;;;;;;;;;;;;-0.05;100.00;99210.22;1596567;89;24982;-82
2022/01/29 02:20:06;;;;;;;;;;;;;;;-0.04;100.00;99217.07;1595380;89;21945;-82
2022/01/29 02:22:32;;;;;;;;;;;;;;;-0.05;100.00;99207.21;1583751;90;26288;-82
2022/01/29 02:24:58;;;;;;;;;;;;;;;-0.04;100.00;99209.35;1583209;90;24455;-82
2022/01/29 02:27:24;;;;;;;;;;;;;;;-0.06;100.00;99208.55;1583652;90;20231;-82
2022/01/29 02:29:50;;;;;;;;;;;;;;;-0.08;100.00;99206.42;1601303;89;25697;-82
2022/01/29 02:32:16;;;;;;;;;;;;;;;-0.11;100.00;99210.34;1603054;89;22252;-82
2022/01/29 02:34:44;;;;;;;;;;;;;;;-0.14;100.00;99202.65;1600882;89;25955;-82
2022/01/29 02:37:10;;;;;;;;;;;;;;;-0.16;100.00;99196.66;1603425;89;24502;-82
2022/01/29 02:39:36;;;;;;;;;;;;;;;-0.17;100.00;99205.28;1602623;89;20252;-82
2022/01/29 02:42:03;;;;;;;;;;;;;;;-0.19;100.00;99208.30;1605999;89;25944;-82
2022/01/29 02:44:30;;;;;;;;;;;;;;;-0.23;100.00;99206.22;1599443;89;21954;-82
2022/01/29 02:47:08;;;;;;;;;;;;;;;-0.25;100.00;99193.80;1601219;89;26081;-82
2022/01/29 02:49:26;;;;;;;;;;;;;;;-0.25;100.00;99198.09;1602273;89;25022;-81
2022/01/29 02:51:54;;;;;;;;;;;;;;;-0.29;100.00;99196.02;1600350;89;20230;-82
2022/01/29 02:54:21;;;;;;;;;;;;;;;-0.29;100.00;99199.02;1602606;89;25038;-82
2022/01/29 02:56:49;;;;;;;;;;;;;;;-0.29;100.00;99193.87;1606370;89;21976;-82
2022/01/29 02:59:15;;;;;;;;;;;;;;;-0.32;100.00;99188.33;1604854;89;25921;-82
2022/01/29 03:01:42;;;;;;;;;;;;;;;-0.34;100.00;99183.66;1597740;89;24402;-81
2022/01/29 03:04:08;;;;;;;;;;;;;;;-0.33;100.00;99189.22;1600115;89;20547;-82
2022/01/29 03:06:35;;;;;;;;;;;;;;;-0.33;100.00;99187.08;1600655;89;25128;-82
2022/01/29 03:09:01;;;;;;;;;;;;;;;-0.35;100.00;99178.53;1603002;89;22175;-82
2022/01/29 03:11:27;;;;;;;;;;;;;;;-0.35;100.00;99174.23;1600262;89;26017;-81
2022/01/29 03:13:53;;;;;;;;;;;;;;;-0.34;100.00;99173.80;1599166;89;24659;-82
2022/01/29 03:16:20;;;;;;;;;;;;;;;-0.35;100.00;99168.24;1583607;88;20266;-82
2022/01/29 03:18:46;;;;;;;;;;;;;;;-0.33;100.00;99161.37;1572604;90;25127;-82
2022/01/29 03:21:12;;;;;;;;;;;;;;;-0.31;100.00;99164.75;1593129;88;22082;-82
2022/01/29 03:23:38;;;;;;;;;;;;;;;-0.31;100.00;99160.89;1568965;91;26257;-83
2022/01/29 03:26:04;;;;;;;;;;;;;;;-0.29;100.00;99163.02;1594981;89;24613;-83
2022/01/29 03:28:31;;;;;;;;;;;;;;;-0.28;100.00;99165.58;1595426;88;20259;-83
2022/01/29 03:30:59;;;;;;;;;;;;;;;-0.24;100.00;99159.94;1596858;88;25388;-82
2022/01/29 03:33:25;;;;;;;;;;;;;;;-0.22;100.00;99161.59;1595699;89;22253;-82
2022/01/29 03:35:51;;;;;;;;;;;;;;;-0.19;100.00;99161.56;1596137;88;21081;-82
2022/01/29 03:38:17;;;;;;;;;;;;;;;-0.17;100.00;99151.27;1597027;88;24476;-82
2022/01/29 03:40:45;;;;;;;;;;;;;;;-0.17;100.00;99148.70;1594982;88;20171;-82
2022/01/29 03:43:14;;;;;;;;;;;;;;;-0.15;100.00;99149.06;1587791;89;25058;-82
2022/01/29 03:45:41;;;;;;;;;;;;;;;-0.15;100.00;99143.92;1586728;88;22712;-82
2022/01/29 03:48:10;;;;;;;;;;;;;;;-0.14;100.00;99143.48;1583488;89;26712;-83
2022/01/29 03:50:36;;;;;;;;;;;;;;;-0.11;100.00;99139.59;1586667;89;24582;-83
2022/01/29 03:53:03;;;;;;;;;;;;;;;-0.09;100.00;99137.40;1585926;89;20779;-82
2022/01/29 03:55:29;;;;;;;;;;;;;;;-0.09;100.00;99132.69;1583695;89;25765;-82
2022/01/29 03:57:58;;;;;;;;;;;;;;;-0.09;100.00;99141.69;1581038;88;22847;-82
2022/01/29 04:00:25;;;;;;;;;;;;;;;-0.09;100.00;99133.54;1585329;89;26004;-82
2022/01/29 04:02:51;;;;;;;;;;;;;;;-0.09;100.00;99128.39;1592342;88;24561;-82
2022/01/29 04:05:17;;;;;;;;;;;;;;;-0.12;100.00;99127.17;1572682;89;20249;-82
2022/01/29 04:07:43;;;;;;;;;;;;;;;-0.12;100.00;99116.03;1594041;88;24949;-82
2022/01/29 04:10:09;;;;;;;;;;;;;;;-0.13;100.00;99111.75;1595077;89;20963;-82
2022/01/29 04:12:41;;;;;;;;;;;;;;;-0.15;100.00;99112.20;1591408;89;26139;-82
2022/01/29 04:15:03;;;;;;;;;;;;;;;-0.16;100.00;99109.21;1594368;89;24525;-82
2022/01/29 04:17:29;;;;;;;;;;;;;;;-0.20;100.00;99101.99;1590476;89;20219;-82
2022/01/29 04:19:55;;;;;;;;;;;;;;;-0.23;100.00;99098.63;1589773;88;20995;-82
2022/01/29 04:22:21;;;;;;;;;;;;;;;-0.27;100.00;99105.53;1592004;89;20891;-82
2022/01/29 04:24:47;;;;;;;;;;;;;;;-0.30;100.00;99099.16;1594778;88;26005;-82
2022/01/29 04:27:20;;;;;;;;;;;;;;;-0.32;100.00;99105.19;1606637;88;24339;-82
2022/01/29 04:29:56;;;;;;;;;;;;;;;-0.34;100.00;99099.23;1593538;88;20256;-82
2022/01/29 04:32:29;;;;;;;;;;;;;;;-0.35;100.00;99095.81;1588274;89;25617;-82
2022/01/29 04:34:48;;;;;;;;;;;;;;;-0.36;100.00;99091.97;1595376;89;22700;-82
2022/01/29 04:37:14;;;;;;;;;;;;;;;-0.36;100.00;99091.97;1590153;88;21082;-81
2022/01/29 04:39:40;;;;;;;;;;;;;;;-0.37;100.00;99093.69;1588647;89;24391;-82
2022/01/29 04:42:06;;;;;;;;;;;;;;;-0.38;100.00;99091.17;1595043;89;20377;-82
2022/01/29 04:44:32;;;;;;;;;;;;;;;-0.37;100.00;99098.84;1593102;89;25003;-82
2022/01/29 04:46:58;;;;;;;;;;;;;;;-0.39;100.00;99086.89;1591473;89;22040;-81
2022/01/29 04:49:24;;;;;;;;;;;;;;;-0.40;100.00;99081.33;1589761;89;26072;-82
2022/01/29 04:51:51;;;;;;;;;;;;;;;-0.43;100.00;99077.92;1590854;89;24216;-82
2022/01/29 04:54:20;;;;;;;;;;;;;;;-0.46;100.00;99077.98;1591005;89;20326;-82
2022/01/29 04:56:46;;;;;;;;;;;;;;;-0.46;100.00;99078.42;1592741;89;25360;-82
2022/01/29 04:59:12;;;;;;;;;;;;;;;-0.48;100.00;99076.30;1593735;88;20332;-82
2022/01/29 05:01:39;;;;;;;;;;;;;;;-0.51;100.00;99071.22;1591058;89;26099;-82
2022/01/29 05:04:06;;;;;;;;;;;;;;;-0.54;100.00;99065.67;1593687;88;23829;-82
2022/01/29 05:06:32;;;;;;;;;;;;;;;-0.56;100.00;99064.86;1596206;89;20542;-82
2022/01/29 05:08:58;;;;;;;;;;;;;;;-0.56;100.00;99064.02;1565605;91;25027;-81
2022/01/29 05:11:24;;;;;;;;;;;;;;;-0.56;100.00;99057.16;1589214;89;21989;-82
2022/01/29 05:13:50;;;;;;;;;;;;;;;-0.56;100.00;99055.87;1600283;89;26015;-82
2022/01/29 05:27:09;;;;;;;;;;;;;;;-0.58;100.00;99062.74;1575462;90;26061;-82
2022/01/29 05:29:36;;;;;;;;;;;;;;;-0.57;100.00;99058.02;1577277;90;24519;-82
2022/01/29 05:32:04;;;;;;;;;;;;;;;-0.55;100.00;99046.00;1572785;90;20281;-82
2022/01/29 05:34:30;;;;;;;;;;;;;;;-0.52;100.00;99051.52;1582761;90;25091;-82
2022/01/29 05:36:57;;;;;;;;;;;;;;;-0.51;100.00;99050.22;1574986;90;22017;-82
2022/01/29 05:39:24;;;;;;;;;;;;;;;-0.49;100.00;99052.73;1578365;90;20955;-82
2022/01/29 05:41:53;;;;;;;;;;;;;;;-0.49;100.00;99052.30;1589374;89;24557;-82
2022/01/29 05:44:20;;;;;;;;;;;;;;;-0.49;100.00;99058.73;1564093;91;20262;-82
2022/01/29 05:46:46;;;;;;;;;;;;;;;-0.50;100.00;99051.07;1564608;90;24982;-82
2022/01/29 05:49:12;;;;;;;;;;;;;;;-0.51;100.00;99047.64;1577009;90;22061;-82
2022/01/29 05:51:38;;;;;;;;;;;;;;;-0.51;100.00;99046.80;1584585;89;26025;-82
2022/01/29 05:54:04;;;;;;;;;;;;;;;-0.51;100.00;99046.36;1559324;90;24869;-82
2022/01/29 05:56:30;;;;;;;;;;;;;;;-0.51;100.00;99050.22;1578289;90;20195;-82
2022/01/29 05:58:57;;;;;;;;;;;;;;;-0.51;100.00;99049.36;1580174;90;25071;-82
2022/01/29 06:01:23;;;;;;;;;;;;;;;-0.52;100.00;99042.09;1577892;90;21968;-82
2022/01/29 06:03:49;;;;;;;;;;;;;;;-0.53;100.00;99050.66;1574918;90;26068;-82
2022/01/29 06:06:15;;;;;;;;;;;;;;;-0.54;100.00;99049.39;1570330;90;24416;-82
2022/01/29 06:08:43;;;;;;;;;;;;;;;-0.54;100.00;99046.39;1580123;90;20230;-82
2022/01/29 06:11:09;;;;;;;;;;;;;;;-0.55;100.00;99042.58;1574935;90;25041;-84
2022/01/29 06:13:35;;;;;;;;;;;;;;;-0.51;100.00;99048.94;1579514;90;20254;-83
2022/01/29 06:16:02;;;;;;;;;;;;;;;-0.49;100.00;99043.74;1578863;88;26060;-83
2022/01/29 06:18:28;;;;;;;;;;;;;;;-0.51;99.96;99050.22;1580693;90;24471;-83
2022/01/29 06:20:56;;;;;;;;;;;;;;;-0.54;99.83;99051.53;1582882;90;20259;-83
2022/01/29 06:23:30;;;;;;;;;;;;;;;-0.56;99.75;99049.44;1590037;89;26048;-83
2022/01/29 06:25:58;;;;;;;;;;;;;;;-0.58;99.58;99054.17;1590207;88;22007;-83
2022/01/29 06:28:24;;;;;;;;;;;;;;;-0.61;99.46;99049.95;1592007;88;26112;-83
2022/01/29 06:30:50;;;;;;;;;;;;;;;-0.61;99.38;99052.95;1587581;89;24404;-84
2022/01/29 06:33:16;;;;;;;;;;;;;;;-0.61;99.28;99051.67;1595652;89;20259;-84
2022/01/29 06:35:43;;;;;;;;;;;;;;;-0.61;99.20;99059.38;1587428;89;24951;-84
2022/01/29 06:38:20;;;;;;;;;;;;;;;-0.64;99.12;99047.41;1590208;89;22133;-83
2022/01/29 06:40:46;;;;;;;;;;;;;;;-0.69;98.99;99038.07;1582786;89;26043;-83
2022/01/29 06:43:12;;;;;;;;;;;;;;;-0.71;98.90;99031.66;1574924;90;24420;-83
2022/01/29 06:45:40;;;;;;;;;;;;;;;-0.73;98.83;99030.86;1563481;90;20494;-83
2022/01/29 06:48:08;;;;;;;;;;;;;;;-0.73;98.77;99027.00;1580547;89;25525;-83
2022/01/29 06:50:35;;;;;;;;;;;;;;;-0.74;98.72;99024.02;1580218;90;21912;-83
2022/01/29 06:53:01;;;;;;;;;;;;;;;-0.74;98.68;99025.73;1581886;90;26132;-83
2022/01/29 06:55:27;;;;;;;;;;;;;;;-0.73;98.70;99016.72;1583521;90;24455;-82
2022/01/29 06:57:55;;;;;;;;;;;;;;;-0.73;98.68;99010.73;1575926;90;20320;-82
2022/01/29 07:00:21;;;;;;;;;;;;;;;-0.72;98.70;99007.30;1582016;90;25043;-82
2022/01/29 07:02:47;;;;;;;;;;;;;;;-0.71;98.74;98994.41;1580178;90;22049;-82
2022/01/29 07:05:13;;;;;;;;;;;;;;;-0.69;98.76;98991.38;1580442;90;25959;-82
2022/01/29 07:07:39;;;;;;;;;;;;;;;-0.66;98.80;98987.93;1580166;90;24427;-82
2022/01/29 07:10:06;;;;;;;;;;;;;;;-0.65;98.88;98994.73;1584744;90;20235;-82
2022/01/29 07:12:39;;;;;;;;;;;;;;;-0.61;98.94;98993.84;1584652;90;25736;-82
2022/01/29 07:15:14;;;;;;;;;;;;;;;-0.60;98.99;98992.51;1576335;90;21983;-82
2022/01/29 07:17:40;;;;;;;;;;;;;;;-0.58;99.05;98988.64;1595914;88;25989;-83
2022/01/29 07:20:09;;;;;;;;;;;;;;;-0.59;99.07;98987.78;1592650;89;24469;-83
2022/01/29 07:22:35;;;;;;;;;;;;;;;-0.58;99.10;98989.48;1562118;90;20244;-83
2022/01/29 07:25:01;;;;;;;;;;;;;;;-0.59;99.09;98995.93;1576441;90;25027;-81
2022/01/29 07:27:27;;;;;;;;;;;;;;;-0.59;99.09;98991.64;1596072;88;20862;-83
2022/01/29 07:29:53;;;;;;;;;;;;;;;-0.59;99.11;98992.08;1567350;91;26079;-82
2022/01/29 07:32:19;;;;;;;;;;;;;;;-0.58;99.16;98983.06;1571554;90;25320;-81
2022/01/29 07:34:46;;;;;;;;;;;;;;;-0.54;99.28;98984.70;1587638;89;20352;-81
2022/01/29 07:37:12;;;;;;;;;;;;;;;-0.47;99.38;98986.30;1599245;89;25022;-82
2022/01/29 07:39:38;;;;;;;;;;;;;;;-0.46;99.45;98976.44;1571420;90;22261;-82
2022/01/29 07:42:04;;;;;;;;;;;;;;;-0.42;99.50;98974.65;1572597;90;26084;-82
2022/01/29 07:44:30;;;;;;;;;;;;;;;-0.41;99.53;98971.21;1597764;89;24397;-82
2022/01/29 07:46:56;;;;;;;;;;;;;;;-0.43;99.56;98967.38;1591611;88;20566;-82
2022/01/29 07:49:23;;;;;;;;;;;;;;;-0.43;99.53;98964.80;1589473;88;25034;-82
2022/01/29 07:51:49;;;;;;;;;;;;;;;-0.42;99.49;98957.50;1598258;88;21999;-82
2022/01/29 07:54:15;;;;;;;;;;;;;;;-0.40;99.49;98958.77;1566016;91;26052;-82
2022/01/29 07:56:41;;;;;;;;;;;;;;;-0.40;99.51;98951.49;1575458;89;24636;-82
2022/01/29 07:59:07;;;;;;;;;;;;;;;-0.35;99.53;98949.69;1581404;89;20770;-81
2022/01/29 08:01:33;;;;;;;;;;;;;;;-0.30;99.60;98949.16;1584132;89;25037;-82
2022/01/29 08:03:59;;;;;;;;;;;;;;;-0.25;99.69;98953.78;1590334;88;21916;-82
2022/01/29 08:06:33;;;;;;;;;;;;;;;-0.19;99.76;98950.67;1584868;88;26179;-83
2022/01/29 08:08:57;;;;;;;;;;;;;;;-0.12;99.89;98938.55;1586526;89;24662;-83
2022/01/29 08:11:24;;;;;;;;;;;;;;;-0.07;99.96;98945.73;1585342;89;20623;-83
2022/01/29 08:13:50;;;;;;;;;;;;;;;-0.02;100.00;98935.77;1589136;89;25143;-83
2022/01/29 08:16:16;;;;;;;;;;;;;;;0.06;100.00;98936.88;1582164;88;22762;-83
2022/01/29 08:18:45;;;;;;;;;;;;;;;0.17;100.00;98930.23;1582555;89;26104;-83
2022/01/29 08:21:14;;;;;;;;;;;;;;;0.27;100.00;98917.61;1582779;89;25126;-83
2022/01/29 08:23:41;;;;;;;;;;;;;;;0.39;100.00;98923.77;1585120;89;20570;-83
2022/01/29 08:26:07;;;;;;;;;;;;;;;0.50;100.00;98929.97;1577715;89;24991;-82
2022/01/29 08:28:33;;;;;;;;;;;;;;;0.59;100.00;98921.63;1580832;89;22061;-83
2022/01/29 08:30:59;;;;;;;;;;;;;;;0.68;100.00;98926.56;1585204;89;25970;-83
2022/01/29 08:33:25;;;;;;;;;;;;;;;0.70;100.00;98918.37;1581689;89;24267;-83
2022/01/29 08:35:52;;;;;;;;;;;;;;;0.81;100.00;98916.84;1581101;89;20226;-84
2022/01/29 08:38:19;;;;;;;;;;;;;;;0.88;100.00;98909.34;1579401;89;25709;-84
2022/01/29 08:40:45;;;;;;;;;;;;;;;0.97;100.00;98911.73;1583490;89;22150;-83
2022/01/29 08:43:11;;;;;;;;;;;;;;;1.03;100.00;98905.14;1591093;89;26235;-83
2022/01/29 08:45:37;;;;;;;;;;;;;;;1.08;100.00;98903.73;1584163;89;24418;-83
2022/01/29 08:48:03;;;;;;;;;;;;;;;1.11;100.00;98905.79;1578780;89;20320;-82
2022/01/29 08:50:30;;;;;;;;;;;;;;;1.18;100.00;98894.45;1580403;89;25048;-83
2022/01/29 08:52:57;;;;;;;;;;;;;;;1.27;100.00;98890.78;1578278;89;22051;-83
2022/01/29 08:55:23;;;;;;;;;;;;;;;1.35;100.00;98889.31;1583393;89;25992;-83
2022/01/29 08:57:58;;;;;;;;;;;;;;;1.41;100.00;98885.29;1599023;88;24393;-83
2022/01/29 09:00:24;;;;;;;;;;;;;;;1.45;100.00;98888.19;1593791;88;20257;-83
2022/01/29 09:02:50;;;;;;;;;;;;;;;1.49;100.00;98879.47;1594472;88;25036;-82
2022/01/29 09:05:18;;;;;;;;;;;;;;;1.57;100.00;98880.98;1594235;89;22028;-82
2022/01/29 09:07:47;;;;;;;;;;;;;;;1.66;100.00;98872.14;1592325;88;26764;-83
2022/01/29 09:10:14;;;;;;;;;;;;;;;1.73;100.00;98863.36;1592810;88;24416;-83
2022/01/29 09:12:40;;;;;;;;;;;;;;;1.80;100.00;98864.85;1596820;88;20580;-83
2022/01/29 09:15:07;;;;;;;;;;;;;;;1.82;100.00;98854.50;1597001;89;25608;-83
2022/01/29 09:17:35;;;;;;;;;;;;;;;1.86;100.00;98853.52;1599816;87;21982;-83
2022/01/29 09:20:04;;;;;;;;;;;;;;;1.89;100.00;98848.28;1598844;89;26056;-83
2022/01/29 09:22:30;;;;;;;;;;;;;;;1.91;100.00;98844.75;1593780;89;24553;-83
2022/01/29 09:24:56;;;;;;;;;;;;;;;1.95;100.00;98840.38;1580240;89;20900;-83
2022/01/29 09:27:22;;;;;;;;;;;;;;;1.99;100.00;98846.69;1601900;89;25023;-83
2022/01/29 09:29:51;;;;;;;;;;;;;;;2.00;100.00;98839.80;1595290;89;22047;-83
2022/01/29 09:32:17;;;;;;;;;;;;;;;2.02;100.00;98836.70;1592408;89;26796;-83
2022/01/29 09:34:43;;;;;;;;;;;;;;;2.04;100.00;98842.67;1601199;88;21975;-82
2022/01/29 09:37:09;;;;;;;;;;;;;;;2.08;100.00;98845.56;1601010;89;20249;-83
2022/01/29 09:39:35;;;;;;;;;;;;;;;2.13;100.00;98840.29;1603306;89;25048;-83
2022/01/29 09:42:02;;;;;;;;;;;;;;;2.19;100.00;98840.08;1595769;89;21964;-83
2022/01/29 09:44:34;;;;;;;;;;;;;;;2.27;100.00;98834.26;1602486;89;27561;-83
2022/01/29 09:47:01;;;;;;;;;;;;;;;2.35;100.00;98836.14;1597400;89;24433;-83
2022/01/29 09:49:32;;;;;;;;;;;;;;;2.43;100.00;98829.02;1601839;89;20302;-83
2022/01/29 09:51:58;;;;;;;;;;;;;;;2.46;100.00;98819.87;1594005;88;25019;-83
2022/01/29 09:54:26;;;;;;;;;;;;;;;2.52;100.00;98820.98;1610993;87;22051;-83
2022/01/29 09:56:53;;;;;;;;;;;;;;;2.57;100.00;98824.26;1597699;89;27422;-82
2022/01/29 09:59:19;;;;;;;;;;;;;;;2.64;100.00;98819.30;1595867;89;24544;-83
2022/01/29 10:01:46;;;;;;;;;;;;;;;2.67;100.00;98799.84;1595675;88;20342;-83
2022/01/29 10:04:12;;;;;;;;;;;;;;;2.74;100.00;98795.30;1598714;89;25095;-83
2022/01/29 10:06:42;;;;;;;;;;;;;;;2.80;100.00;98792.52;1596306;89;21884;-83
2022/01/29 10:09:12;;;;;;;;;;;;;;;2.83;100.00;98789.41;1599868;87;26130;-83
2022/01/29 10:11:35;;;;;;;;;;;;;;;2.86;100.00;98772.94;1598930;87;25152;-82
2022/01/29 10:14:02;;;;;;;;;;;;;;;2.89;100.00;98765.91;1602861;89;20234;-83
2022/01/29 10:16:30;;;;;;;;;;;;;;;2.92;100.00;98767.13;1596918;88;25014;-83
2022/01/29 10:19:00;;;;;;;;;;;;;;;2.95;100.00;98764.86;1588434;88;22169;-82
2022/01/29 10:21:29;;;;;;;;;;;;;;;3.00;100.00;98759.56;1580484;90;26078;-82
2022/01/29 10:24:04;;;;;;;;;;;;;;;3.05;100.00;98766.70;1572513;91;24451;-82
2022/01/29 10:26:34;;;;;;;;;;;;;;;3.06;100.00;98761.46;1570892;91;20196;-82
2022/01/29 10:29:03;;;;;;;;;;;;;;;3.05;100.00;98763.67;1550110;91;25541;-82
2022/01/29 10:31:40;;;;;;;;;;;;;;;3.05;100.00;98758.51;1576413;90;22934;-82
2022/01/29 10:34:16;;;;;;;;;;;;;;;3.09;100.00;98745.02;1577386;89;26091;-83
2022/01/29 10:36:42;;;;;;;;;;;;;;;3.12;100.00;98731.97;1581784;89;24431;-82
2022/01/29 10:39:08;;;;;;;;;;;;;;;3.13;100.00;98727.20;1572265;90;20265;-82
2022/01/29 10:41:34;;;;;;;;;;;;;;;3.13;100.00;98728.05;1567625;90;24816;-82
2022/01/29 10:44:35;;;;;;;;;;;;;;;3.14;100.00;98728.44;1574672;90;22063;-82
2022/01/29 10:46:38;;;;;;;;;;;;;;;3.15;100.00;98715.06;1567309;90;26269;-82
2022/01/29 10:49:04;;;;;;;;;;;;;;;3.17;100.00;98717.12;1578943;89;24543;-82
2022/01/29 10:51:32;;;;;;;;;;;;;;;3.20;100.00;98717.04;1573795;89;20222;-82
2022/01/29 10:54:16;;;;;;;;;;;;;;;3.21;100.00;98705.36;1574000;90;24987;-82
2022/01/29 10:56:44;;;;;;;;;;;;;;;3.23;100.00;98723.38;1571462;90;22073;-82
2022/01/29 10:59:12;;;;;;;;;;;;;;;3.25;100.00;98713.39;1567349;89;26179;-82
2022/01/29 11:01:38;;;;;;;;;;;;;;;3.34;100.00;98709.16;1590929;89;24413;-82
2022/01/29 11:04:04;;;;;;;;;;;;;;;3.38;100.00;98696.51;1575611;91;20870;-83
2022/01/29 11:06:34;;;;;;;;;;;;;;;3.43;100.00;98696.81;1574532;91;24935;-82
2022/01/29 11:08:58;;;;;;;;;;;;;;;3.47;100.00;98692.75;1579203;88;22694;-82
2022/01/29 11:11:25;;;;;;;;;;;;;;;3.42;100.00;98693.38;1575850;90;26337;-82
2022/01/29 11:13:51;;;;;;;;;;;;;;;3.41;100.00;98696.86;1573170;90;24390;-83
2022/01/29 11:16:17;;;;;;;;;;;;;;;3.36;100.00;98692.30;1579583;90;20233;-83
2022/01/29 11:18:44;;;;;;;;;;;;;;;3.32;100.00;98682.98;1583835;88;24949;-83
2022/01/29 11:21:10;;;;;;;;;;;;;;;3.31;100.00;98673.08;1580492;90;22049;-82
2022/01/29 11:23:36;;;;;;;;;;;;;;;3.28;100.00;98662.83;1587436;88;26374;-82
2022/01/29 11:26:02;;;;;;;;;;;;;;;3.26;100.00;98666.39;1588963;88;24418;-83
2022/01/29 11:28:34;;;;;;;;;;;;;;;3.28;100.00;98661.98;1583838;88;20216;-82
2022/01/29 11:31:20;;;;;;;;;;;;;;;3.24;100.00;98652.22;1578234;90;25085;-82
2022/01/29 11:34:03;;;;;;;;;;;;;;;3.23;100.00;98651.81;1584607;88;22022;-82
2022/01/29 11:36:49;;;;;;;;;;;;;;;3.20;100.00;98642.05;1573939;88;26912;-83
2022/01/29 11:39:19;;;;;;;;;;;;;;;3.21;100.00;98636.83;1577472;89;24466;-82
2022/01/29 11:41:45;;;;;;;;;;;;;;;3.24;100.00;98630.68;1576846;88;20259;-82
2022/01/29 11:44:27;;;;;;;;;;;;;;;3.22;100.00;98628.59;1585669;89;24946;-83
2022/01/29 11:46:53;;;;;;;;;;;;;;;3.21;100.00;98620.47;1578789;89;22846;-82
2022/01/29 11:49:21;;;;;;;;;;;;;;;3.19;100.00;98613.20;1567194;89;26314;-82
2022/01/29 11:51:48;;;;;;;;;;;;;;;3.20;100.00;98613.60;1571967;90;24503;-83
2022/01/29 11:54:16;;;;;;;;;;;;;;;3.19;100.00;98606.30;1578291;89;20264;-82
2022/01/29 11:56:44;;;;;;;;;;;;;;;3.18;100.00;98593.41;1576636;90;25048;-82
2022/01/29 11:59:24;;;;;;;;;;;;;;;3.18;100.00;98590.83;1577674;90;22119;-82
2022/01/29 12:01:54;;;;;;;;;;;;;;;3.15;99.99;98584.05;1594014;89;26058;-82
2022/01/29 12:04:21;;;;;;;;;;;;;;;3.16;99.96;98587.47;1562771;90;24694;-83
2022/01/29 12:06:59;;;;;;;;;;;;;;;3.15;99.93;98584.05;1574260;89;20783;-82
2022/01/29 12:09:25;;;;;;;;;;;;;;;3.14;99.91;98573.75;1579190;88;24997;-83
2022/01/29 12:12:10;;;;;;;;;;;;;;;3.18;99.99;98573.57;1573519;90;22035;-83
2022/01/29 12:14:36;;;;;;;;;;;;;;;3.27;100.00;98564.64;1574040;89;26028;-83
2022/01/29 12:17:05;;;;;;;;;;;;;;;3.29;100.00;98561.52;1578582;90;24532;-83
2022/01/29 12:19:36;;;;;;;;;;;;;;;3.28;100.00;98554.21;1593244;89;20313;-83
2022/01/29 12:22:16;;;;;;;;;;;;;;;3.26;100.00;98542.26;1587206;89;24978;-83
2022/01/29 12:24:44;;;;;;;;;;;;;;;3.30;100.00;98545.95;1599034;89;22150;-83
2022/01/29 12:27:10;;;;;;;;;;;;;;;3.39;100.00;98542.16;1598337;88;26781;-83
2022/01/29 12:29:38;;;;;;;;;;;;;;;3.42;100.00;98534.29;1593332;88;24598;-83
2022/01/29 12:32:04;;;;;;;;;;;;;;;3.46;100.00;98517.73;1581220;90;20341;-83
2022/01/29 12:34:31;;;;;;;;;;;;;;;3.53;100.00;98516.59;1578682;90;25075;-83
2022/01/29 12:37:18;;;;;;;;;;;;;;;3.59;100.00;98519.39;1586880;90;22031;-83
2022/01/29 12:39:48;;;;;;;;;;;;;;;3.65;100.00;98508.34;1584949;89;26109;-83
2022/01/29 12:44:45;;;;;;;;;;;;;;;3.62;100.00;98495.96;1580560;90;20254;-83
2022/01/29 12:47:25;;;;;;;;;;;;;;;3.53;100.00;98489.42;1587082;89;25013;-83
2022/01/29 12:49:51;;;;;;;;;;;;;;;3.51;100.00;98490.38;1580473;90;21986;-83
2022/01/29 12:52:18;;;;;;;;;;;;;;;3.49;100.00;98481.86;1582127;89;21136;-83
2022/01/29 12:54:54;;;;;;;;;;;;;;;3.45;100.00;98475.95;1581802;90;24401;-83
2022/01/29 12:57:21;;;;;;;;;;;;;;;3.35;100.00;98472.90;1588050;89;20209;-83